Aviation Digital Data Service (ADDS)

Output produced by METARs form (2223 UTC 23 March 2019)
found at http://www.aviationweather.gov/metar/data/
 
METAR text: LFRL 232200Z AUTO 06007KT CAVOK 10/07 Q1029
Conditions at: LFRL (LANVEOC/POULMIC(, FR) observed 2200 UTC 23 March 2019
Temperature: 10.0°C (50°F)
Dewpoint: 7.0°C (45°F) [RH = 82%]
Pressure (altimeter): 30.38 inches Hg (1029.0 mb)
Winds: from the ENE (60 degrees) at 8 MPH (7 knots; 3.6 m/s)
Visibility: 6 or more miles (10+ km)
Ceiling: ceiling and visibility are OK
Clouds: unknown
Weather: no significant weather observed at this time

METAR text: LFRL 232130Z AUTO 06007KT CAVOK 10/07 Q1029
Conditions at: LFRL (LANVEOC/POULMIC(, FR) observed 2130 UTC 23 March 2019
Temperature: 10.0°C (50°F)
Dewpoint: 7.0°C (45°F) [RH = 82%]
Pressure (altimeter): 30.38 inches Hg (1029.0 mb)
Winds: from the ENE (60 degrees) at 8 MPH (7 knots; 3.6 m/s)
Visibility: 6 or more miles (10+ km)
Ceiling: ceiling and visibility are OK
Clouds: unknown
Weather: no significant weather observed at this time

METAR text: LFRL 232100Z AUTO 06005KT CAVOK 10/06 Q1029
Conditions at: LFRL (LANVEOC/POULMIC(, FR) observed 2100 UTC 23 March 2019
Temperature: 10.0°C (50°F)
Dewpoint: 6.0°C (43°F) [RH = 76%]
Pressure (altimeter): 30.38 inches Hg (1029.0 mb)
Winds: from the ENE (60 degrees) at 6 MPH (5 knots; 2.6 m/s)
Visibility: 6 or more miles (10+ km)
Ceiling: ceiling and visibility are OK
Clouds: unknown
Weather: no significant weather observed at this time

METAR text: LFRL 232030Z AUTO 05006KT CAVOK 10/06 Q1029
Conditions at: LFRL (LANVEOC/POULMIC(, FR) observed 2030 UTC 23 March 2019
Temperature: 10.0°C (50°F)
Dewpoint: 6.0°C (43°F) [RH = 76%]
Pressure (altimeter): 30.38 inches Hg (1029.0 mb)
Winds: from the NE (50 degrees) at 7 MPH (6 knots; 3.1 m/s)
Visibility: 6 or more miles (10+ km)
Ceiling: ceiling and visibility are OK
Clouds: unknown
Weather: no significant weather observed at this time

METAR text: LFRL 232000Z AUTO 06006KT 9999 FEW039 SCT058 11/06 Q1029
Conditions at: LFRL (LANVEOC/POULMIC(, FR) observed 2000 UTC 23 March 2019
Temperature: 11.0°C (52°F)
Dewpoint: 6.0°C (43°F) [RH = 71%]
Pressure (altimeter): 30.38 inches Hg (1029.0 mb)
Winds: from the ENE (60 degrees) at 7 MPH (6 knots; 3.1 m/s)
Visibility: 6 or more miles (10+ km)
Ceiling: at least 12,000 feet AGL
Clouds: few clouds at 3900 feet AGL
scattered clouds at 5800 feet AGL
Weather: no significant weather observed at this time

METAR text: LFRL 231930Z AUTO 07007KT 030V100 9999 FEW038 BKN056 12/07 Q1029
Conditions at: LFRL (LANVEOC/POULMIC(, FR) observed 1930 UTC 23 March 2019
Temperature: 12.0°C (54°F)
Dewpoint: 7.0°C (45°F) [RH = 71%]
Pressure (altimeter): 30.38 inches Hg (1029.0 mb)
Winds: from the ENE (70 degrees) at 8 MPH (7 knots; 3.6 m/s)
Visibility: 6 or more miles (10+ km)
Ceiling: 5600 feet AGL
Clouds: few clouds at 3800 feet AGL
broken clouds at 5600 feet AGL
Weather: no significant weather observed at this time

METAR text: LFRL 231900Z AUTO 05007KT 020V080 9999 BKN040 12/07 Q1028
Conditions at: LFRL (LANVEOC/POULMIC(, FR) observed 1900 UTC 23 March 2019
Temperature: 12.0°C (54°F)
Dewpoint: 7.0°C (45°F) [RH = 71%]
Pressure (altimeter): 30.35 inches Hg (1028.0 mb)
Winds: from the NE (50 degrees) at 8 MPH (7 knots; 3.6 m/s)
Visibility: 6 or more miles (10+ km)
Ceiling: 4000 feet AGL
Clouds: broken clouds at 4000 feet AGL
Weather: no significant weather observed at this time

METAR text: LFRL 231830Z AUTO 03008KT 9999 BKN040 BKN058 12/07 Q1028
Conditions at: LFRL (LANVEOC/POULMIC(, FR) observed 1830 UTC 23 March 2019
Temperature: 12.0°C (54°F)
Dewpoint: 7.0°C (45°F) [RH = 71%]
Pressure (altimeter): 30.35 inches Hg (1028.0 mb)
Winds: from the NNE (30 degrees) at 9 MPH (8 knots; 4.1 m/s)
Visibility: 6 or more miles (10+ km)
Ceiling: 4000 feet AGL
Clouds: broken clouds at 4000 feet AGL
broken clouds at 5800 feet AGL
Weather: no significant weather observed at this time

METAR text: LFRL 231800Z AUTO 02004KT 290V070 9999 FEW029 BKN042 BKN049 13/07 Q1028
Conditions at: LFRL (LANVEOC/POULMIC(, FR) observed 1800 UTC 23 March 2019
Temperature: 13.0°C (55°F)
Dewpoint: 7.0°C (45°F) [RH = 67%]
Pressure (altimeter): 30.35 inches Hg (1028.0 mb)
Winds: from the NNE (20 degrees) at 5 MPH (4 knots; 2.1 m/s)
Visibility: 6 or more miles (10+ km)
Ceiling: 4200 feet AGL
Clouds: few clouds at 2900 feet AGL
broken clouds at 4200 feet AGL
broken clouds at 4900 feet AGL
Weather: no significant weather observed at this time

METAR text: LFRL 231730Z AUTO 23006KT 9999 BKN046 BKN058 14/08 Q1028
Conditions at: LFRL (LANVEOC/POULMIC(, FR) observed 1730 UTC 23 March 2019
Temperature: 14.0°C (57°F)
Dewpoint: 8.0°C (46°F) [RH = 67%]
Pressure (altimeter): 30.35 inches Hg (1028.0 mb)
Winds: from the SW (230 degrees) at 7 MPH (6 knots; 3.1 m/s)
Visibility: 6 or more miles (10+ km)
Ceiling: 4600 feet AGL
Clouds: broken clouds at 4600 feet AGL
broken clouds at 5800 feet AGL
Weather: no significant weather observed at this time

METAR text: LFRL 231700Z AUTO 24008KT 9999 FEW048 BKN058 15/08 Q1028
Conditions at: LFRL (LANVEOC/POULMIC(, FR) observed 1700 UTC 23 March 2019
Temperature: 15.0°C (59°F)
Dewpoint: 8.0°C (46°F) [RH = 63%]
Pressure (altimeter): 30.35 inches Hg (1028.0 mb)
Winds: from the WSW (240 degrees) at 9 MPH (8 knots; 4.1 m/s)
Visibility: 6 or more miles (10+ km)
Ceiling: 5800 feet AGL
Clouds: few clouds at 4800 feet AGL
broken clouds at 5800 feet AGL
Weather: no significant weather observed at this time

METAR text: LFRL 231630Z AUTO 14003KT 080V180 9999 BKN045 OVC056 15/07 Q1027
Conditions at: LFRL (LANVEOC/POULMIC(, FR) observed 1630 UTC 23 March 2019
Temperature: 15.0°C (59°F)
Dewpoint: 7.0°C (45°F) [RH = 59%]
Pressure (altimeter): 30.32 inches Hg (1027.0 mb)
Winds: from the SE (140 degrees) at 3 MPH (3 knots; 1.5 m/s)
Visibility: 6 or more miles (10+ km)
Ceiling: 4500 feet AGL
Clouds: broken clouds at 4500 feet AGL
overcast cloud deck at 5600 feet AGL
Weather: no significant weather observed at this time

METAR text: LFRL 231600Z AUTO 05003KT 360V090 CAVOK 15/06 Q1028
Conditions at: LFRL (LANVEOC/POULMIC(, FR) observed 1600 UTC 23 March 2019
Temperature: 15.0°C (59°F)
Dewpoint: 6.0°C (43°F) [RH = 55%]
Pressure (altimeter): 30.35 inches Hg (1028.0 mb)
Winds: from the NE (50 degrees) at 3 MPH (3 knots; 1.5 m/s)
Visibility: 6 or more miles (10+ km)
Ceiling: ceiling and visibility are OK
Clouds: unknown
Weather: no significant weather observed at this time

METAR text: LFRL 231530Z AUTO 06003KT 020V090 9999 FEW044 BKN052 16/07 Q1028
Conditions at: LFRL (LANVEOC/POULMIC(, FR) observed 1530 UTC 23 March 2019
Temperature: 16.0°C (61°F)
Dewpoint: 7.0°C (45°F) [RH = 55%]
Pressure (altimeter): 30.35 inches Hg (1028.0 mb)
Winds: from the ENE (60 degrees) at 3 MPH (3 knots; 1.5 m/s)
Visibility: 6 or more miles (10+ km)
Ceiling: 5200 feet AGL
Clouds: few clouds at 4400 feet AGL
broken clouds at 5200 feet AGL
Weather: no significant weather observed at this time

METAR text: LFRL 231500Z AUTO 06005KT 030V100 9999 FEW044 SCT052 16/06 Q1028
Conditions at: LFRL (LANVEOC/POULMIC(, FR) observed 1500 UTC 23 March 2019
Temperature: 16.0°C (61°F)
Dewpoint: 6.0°C (43°F) [RH = 51%]
Pressure (altimeter): 30.35 inches Hg (1028.0 mb)
Winds: from the ENE (60 degrees) at 6 MPH (5 knots; 2.6 m/s)
Visibility: 6 or more miles (10+ km)
Ceiling: at least 12,000 feet AGL
Clouds: few clouds at 4400 feet AGL
scattered clouds at 5200 feet AGL
Weather: no significant weather observed at this time

METAR text: LFRL 231430Z AUTO 05004KT 020V090 9999 BKN047 15/06 Q1028
Conditions at: LFRL (LANVEOC/POULMIC(, FR) observed 1430 UTC 23 March 2019
Temperature: 15.0°C (59°F)
Dewpoint: 6.0°C (43°F) [RH = 55%]
Pressure (altimeter): 30.35 inches Hg (1028.0 mb)
Winds: from the NE (50 degrees) at 5 MPH (4 knots; 2.1 m/s)
Visibility: 6 or more miles (10+ km)
Ceiling: 4700 feet AGL
Clouds: broken clouds at 4700 feet AGL
Weather: no significant weather observed at this time

METAR text: LFRL 231400Z AUTO 03006KT 360V080 9999 BKN046 15/06 Q1028
Conditions at: LFRL (LANVEOC/POULMIC(, FR) observed 1400 UTC 23 March 2019
Temperature: 15.0°C (59°F)
Dewpoint: 6.0°C (43°F) [RH = 55%]
Pressure (altimeter): 30.35 inches Hg (1028.0 mb)
Winds: from the NNE (30 degrees) at 7 MPH (6 knots; 3.1 m/s)
Visibility: 6 or more miles (10+ km)
Ceiling: 4600 feet AGL
Clouds: broken clouds at 4600 feet AGL
Weather: no significant weather observed at this time

METAR text: LFRL 231330Z AUTO 02007KT 9999 FEW038 BKN046 15/09 Q1028
Conditions at: LFRL (LANVEOC/POULMIC(, FR) observed 1330 UTC 23 March 2019
Temperature: 15.0°C (59°F)
Dewpoint: 9.0°C (48°F) [RH = 67%]
Pressure (altimeter): 30.35 inches Hg (1028.0 mb)
Winds: from the NNE (20 degrees) at 8 MPH (7 knots; 3.6 m/s)
Visibility: 6 or more miles (10+ km)
Ceiling: 4600 feet AGL
Clouds: few clouds at 3800 feet AGL
broken clouds at 4600 feet AGL
Weather: no significant weather observed at this time

METAR text: LFRL 231300Z AUTO 02007KT 350V050 9999 BKN045 14/08 Q1029
Conditions at: LFRL (LANVEOC/POULMIC(, FR) observed 1300 UTC 23 March 2019
Temperature: 14.0°C (57°F)
Dewpoint: 8.0°C (46°F) [RH = 67%]
Pressure (altimeter): 30.38 inches Hg (1029.0 mb)
Winds: from the NNE (20 degrees) at 8 MPH (7 knots; 3.6 m/s)
Visibility: 6 or more miles (10+ km)
Ceiling: 4500 feet AGL
Clouds: broken clouds at 4500 feet AGL
Weather: no significant weather observed at this time

METAR text: LFRL 231230Z AUTO 05006KT 010V090 9999 FEW046 14/09 Q1029
Conditions at: LFRL (LANVEOC/POULMIC(, FR) observed 1230 UTC 23 March 2019
Temperature: 14.0°C (57°F)
Dewpoint: 9.0°C (48°F) [RH = 72%]
Pressure (altimeter): 30.38 inches Hg (1029.0 mb)
Winds: from the NE (50 degrees) at 7 MPH (6 knots; 3.1 m/s)
Visibility: 6 or more miles (10+ km)
Ceiling: at least 12,000 feet AGL
Clouds: few clouds at 4600 feet AGL
Weather: no significant weather observed at this time

METAR text: LFRL 231200Z AUTO 05006KT 010V100 9999 FEW031 13/08 Q1029
Conditions at: LFRL (LANVEOC/POULMIC(, FR) observed 1200 UTC 23 March 2019
Temperature: 13.0°C (55°F)
Dewpoint: 8.0°C (46°F) [RH = 72%]
Pressure (altimeter): 30.38 inches Hg (1029.0 mb)
Winds: from the NE (50 degrees) at 7 MPH (6 knots; 3.1 m/s)
Visibility: 6 or more miles (10+ km)
Ceiling: at least 12,000 feet AGL
Clouds: few clouds at 3100 feet AGL
Weather: no significant weather observed at this time

METAR text: LFRL 231130Z AUTO 04006KT 010V110 9999 4300 NSC 14/09 Q1029
Conditions at: LFRL (LANVEOC/POULMIC(, FR) observed 1130 UTC 23 March 2019
Temperature: 14.0°C (57°F)
Dewpoint: 9.0°C (48°F) [RH = 72%]
Pressure (altimeter): 30.38 inches Hg (1029.0 mb)
Winds: from the NE (40 degrees) at 7 MPH (6 knots; 3.1 m/s)
Visibility: 6 or more miles (10+ km)
Ceiling: at least 12,000 feet AGL
Clouds: sky clear below 12,000 feet AGL
Weather: no significant weather observed at this time

METAR text: LFRL 231100Z AUTO 06006KT 030V100 9999 4100 NSC 13/08 Q1029
Conditions at: LFRL (LANVEOC/POULMIC(, FR) observed 1100 UTC 23 March 2019
Temperature: 13.0°C (55°F)
Dewpoint: 8.0°C (46°F) [RH = 72%]
Pressure (altimeter): 30.38 inches Hg (1029.0 mb)
Winds: from the ENE (60 degrees) at 7 MPH (6 knots; 3.1 m/s)
Visibility: 6 or more miles (10+ km)
Ceiling: at least 12,000 feet AGL
Clouds: sky clear below 12,000 feet AGL
Weather: no significant weather observed at this time

METAR text: LFRL 231030Z AUTO 01004KT 310V050 CAVOK 12/09 Q1030
Conditions at: LFRL (LANVEOC/POULMIC(, FR) observed 1030 UTC 23 March 2019
Temperature: 12.0°C (54°F)
Dewpoint: 9.0°C (48°F) [RH = 82%]
Pressure (altimeter): 30.41 inches Hg (1030.0 mb)
Winds: from the N (10 degrees) at 5 MPH (4 knots; 2.1 m/s)
Visibility: 6 or more miles (10+ km)
Ceiling: ceiling and visibility are OK
Clouds: unknown
Weather: no significant weather observed at this time

METAR text: LFRL 231000Z AUTO 06005KT 030V090 CAVOK 11/08 Q1030
Conditions at: LFRL (LANVEOC/POULMIC(, FR) observed 1000 UTC 23 March 2019
Temperature: 11.0°C (52°F)
Dewpoint: 8.0°C (46°F) [RH = 82%]
Pressure (altimeter): 30.41 inches Hg (1030.0 mb)
Winds: from the ENE (60 degrees) at 6 MPH (5 knots; 2.6 m/s)
Visibility: 6 or more miles (10+ km)
Ceiling: ceiling and visibility are OK
Clouds: unknown
Weather: no significant weather observed at this time

METAR text: LFRL 230930Z AUTO 02005KT CAVOK 10/08 Q1030
Conditions at: LFRL (LANVEOC/POULMIC(, FR) observed 0930 UTC 23 March 2019
Temperature: 10.0°C (50°F)
Dewpoint: 8.0°C (46°F) [RH = 87%]
Pressure (altimeter): 30.41 inches Hg (1030.0 mb)
Winds: from the NNE (20 degrees) at 6 MPH (5 knots; 2.6 m/s)
Visibility: 6 or more miles (10+ km)
Ceiling: ceiling and visibility are OK
Clouds: unknown
Weather: no significant weather observed at this time

METAR text: LFRL 230900Z AUTO 02004KT 350V050 8000 FEW005 09/08 Q1030
Conditions at: LFRL (LANVEOC/POULMIC(, FR) observed 0900 UTC 23 March 2019
Temperature: 9.0°C (48°F)
Dewpoint: 8.0°C (46°F) [RH = 93%]
Pressure (altimeter): 30.41 inches Hg (1030.0 mb)
Winds: from the NNE (20 degrees) at 5 MPH (4 knots; 2.1 m/s)
Visibility: 5 miles ( 8 km)
Ceiling: at least 12,000 feet AGL
Clouds: few clouds at 500 feet AGL
Weather: no significant weather observed at this time

METAR text: LFRL 230830Z AUTO 03004KT 350V060 4100 BR FEW003 08/08 Q1030
Conditions at: LFRL (LANVEOC/POULMIC(, FR) observed 0830 UTC 23 March 2019
Temperature: 8.0°C (46°F)
Dewpoint: 8.0°C (46°F) [RH = 100%]
Pressure (altimeter): 30.41 inches Hg (1030.0 mb)
Winds: from the NNE (30 degrees) at 5 MPH (4 knots; 2.1 m/s)
Visibility: 2.55 miles (4.10 km)
Ceiling: at least 12,000 feet AGL
Clouds: few clouds at 300 feet AGL
Weather: BR  (mist)

METAR text: LFRL 230800Z AUTO 01003KT 330V040 3800 BR FEW002 08/07 Q1030
Conditions at: LFRL (LANVEOC/POULMIC(, FR) observed 0800 UTC 23 March 2019
Temperature: 8.0°C (46°F)
Dewpoint: 7.0°C (45°F) [RH = 93%]
Pressure (altimeter): 30.41 inches Hg (1030.0 mb)
Winds: from the N (10 degrees) at 3 MPH (3 knots; 1.5 m/s)
Visibility: 2.36 miles (3.80 km)
Ceiling: at least 12,000 feet AGL
Clouds: few clouds at 200 feet AGL
Weather: BR  (mist)

METAR text: LFRL 230730Z AUTO 09004KT 3900 BR FEW001 07/07 Q1029
Conditions at: LFRL (LANVEOC/POULMIC(, FR) observed 0730 UTC 23 March 2019
Temperature: 7.0°C (45°F)
Dewpoint: 7.0°C (45°F) [RH = 100%]
Pressure (altimeter): 30.38 inches Hg (1029.0 mb)
Winds: from the E (90 degrees) at 5 MPH (4 knots; 2.1 m/s)
Visibility: 2.42 miles (3.89 km)
Ceiling: at least 12,000 feet AGL
Clouds: few clouds at 100 feet AGL
Weather: BR  (mist)

METAR text: LFRL 230700Z AUTO 08007KT 0750 0550 R23/0750N R05/1100U FG VV/// 07/06 Q1029
Conditions at: LFRL (LANVEOC/POULMIC(, FR) observed 0700 UTC 23 March 2019
Temperature: 7.0°C (45°F)
Dewpoint: 6.0°C (43°F) [RH = 93%]
Pressure (altimeter): 30.38 inches Hg (1029.0 mb)
Winds: from the E (80 degrees) at 8 MPH (7 knots; 3.6 m/s)
Visibility: 0.47 miles (0.76 km)
Ceiling: indefinite ceiling with vertical visibility of 0 feet AGL
Clouds: obscured sky
Weather: FG  (fog)

METAR text: LFRL 230630Z AUTO 07005KT 1500 1000 R23/1400D R05/1800D BR VV/// 06/06 Q1029
Conditions at: LFRL (LANVEOC/POULMIC(, FR) observed 0630 UTC 23 March 2019
Temperature: 6.0°C (43°F)
Dewpoint: 6.0°C (43°F) [RH = 100%]
Pressure (altimeter): 30.38 inches Hg (1029.0 mb)
Winds: from the ENE (70 degrees) at 6 MPH (5 knots; 2.6 m/s)
Visibility: 0.93 miles (1.50 km)
Ceiling: indefinite ceiling with vertical visibility of 0 feet AGL
Clouds: obscured sky
Weather: BR  (mist)

METAR text: LFRL 230600Z AUTO VRB03KT 0450 0400 R23/0900U R05/0600U FG VV/// 06/05 Q1029
Conditions at: LFRL (LANVEOC/POULMIC(, FR) observed 0600 UTC 23 March 2019
Temperature: 6.0°C (43°F)
Dewpoint: 5.0°C (41°F) [RH = 93%]
Pressure (altimeter): 30.38 inches Hg (1029.0 mb)
Winds: variable direction winds at 3 MPH (3 knots; 1.5 m/s)
Visibility: 0.28 miles (0.45 km)
Ceiling: indefinite ceiling with vertical visibility of 0 feet AGL
Clouds: obscured sky
Weather: FG  (fog)

METAR text: LFRL 230530Z AUTO 05003KT 0350 0250 R23/M0200D R05/0350D FG VV/// 06/06 Q1029
Conditions at: LFRL (LANVEOC/POULMIC(, FR) observed 0530 UTC 23 March 2019
Temperature: 6.0°C (43°F)
Dewpoint: 6.0°C (43°F) [RH = 100%]
Pressure (altimeter): 30.38 inches Hg (1029.0 mb)
Winds: from the NE (50 degrees) at 3 MPH (3 knots; 1.5 m/s)
Visibility: 0.22 miles (0.35 km)
Ceiling: indefinite ceiling with vertical visibility of 0 feet AGL
Clouds: obscured sky
Weather: FG  (fog)

METAR text: LFRL 230500Z AUTO 04003KT 0150 R23/0325U R05/M0200 FG VV/// 06/05 Q1029
Conditions at: LFRL (LANVEOC/POULMIC(, FR) observed 0500 UTC 23 March 2019
Temperature: 6.0°C (43°F)
Dewpoint: 5.0°C (41°F) [RH = 93%]
Pressure (altimeter): 30.38 inches Hg (1029.0 mb)
Winds: from the NE (40 degrees) at 3 MPH (3 knots; 1.5 m/s)
Visibility: 0.09 miles (0.14 km)
Ceiling: indefinite ceiling with vertical visibility of 0 feet AGL
Clouds: obscured sky
Weather: FG  (fog)

METAR text: LFRL 230430Z AUTO 34005KT 320V030 0200 0150 R23/M0200 R05/0225N FG VV/// 07/06 Q1029
Conditions at: LFRL (LANVEOC/POULMIC(, FR) observed 0430 UTC 23 March 2019
Temperature: 7.0°C (45°F)
Dewpoint: 6.0°C (43°F) [RH = 93%]
Pressure (altimeter): 30.38 inches Hg (1029.0 mb)
Winds: from the NNW (340 degrees) at 6 MPH (5 knots; 2.6 m/s)
Visibility: 0.12 miles (0.19 km)
Ceiling: indefinite ceiling with vertical visibility of 0 feet AGL
Clouds: obscured sky
Weather: FG  (fog)

METAR text: LFRL 230400Z AUTO 35006KT 340V050 0250 0150 R23/M0200U R05/0250N FG VV/// 07/06 Q1029
Conditions at: LFRL (LANVEOC/POULMIC(, FR) observed 0400 UTC 23 March 2019
Temperature: 7.0°C (45°F)
Dewpoint: 6.0°C (43°F) [RH = 93%]
Pressure (altimeter): 30.38 inches Hg (1029.0 mb)
Winds: from the N (350 degrees) at 7 MPH (6 knots; 3.1 m/s)
Visibility: 0.16 miles (0.26 km)
Ceiling: indefinite ceiling with vertical visibility of 0 feet AGL
Clouds: obscured sky
Weather: FG  (fog)

METAR text: LFRL 230330Z AUTO 07003KT 040V100 0200 0150 R23/M0200 R05/0200N FG VV/// 07/07 Q1029
Conditions at: LFRL (LANVEOC/POULMIC(, FR) observed 0330 UTC 23 March 2019
Temperature: 7.0°C (45°F)
Dewpoint: 7.0°C (45°F) [RH = 100%]
Pressure (altimeter): 30.38 inches Hg (1029.0 mb)
Winds: from the ENE (70 degrees) at 3 MPH (3 knots; 1.5 m/s)
Visibility: 0.12 miles (0.19 km)
Ceiling: indefinite ceiling with vertical visibility of 0 feet AGL
Clouds: obscured sky
Weather: FG  (fog)

METAR text: LFRL 230300Z AUTO 04004KT 360V100 0200 0150 R23/M0200 R05/M0200N FG VV/// 07/07 Q1029
Conditions at: LFRL (LANVEOC/POULMIC(, FR) observed 0300 UTC 23 March 2019
Temperature: 7.0°C (45°F)
Dewpoint: 7.0°C (45°F) [RH = 100%]
Pressure (altimeter): 30.38 inches Hg (1029.0 mb)
Winds: from the NE (40 degrees) at 5 MPH (4 knots; 2.1 m/s)
Visibility: 0.12 miles (0.19 km)
Ceiling: indefinite ceiling with vertical visibility of 0 feet AGL
Clouds: obscured sky
Weather: FG  (fog)

METAR text: LFRL 230230Z AUTO 07004KT 030V090 0200 0150 R23/M0200 R05/M0200N FG VV/// 07/07 Q1029
Conditions at: LFRL (LANVEOC/POULMIC(, FR) observed 0230 UTC 23 March 2019
Temperature: 7.0°C (45°F)
Dewpoint: 7.0°C (45°F) [RH = 100%]
Pressure (altimeter): 30.38 inches Hg (1029.0 mb)
Winds: from the ENE (70 degrees) at 5 MPH (4 knots; 2.1 m/s)
Visibility: 0.12 miles (0.19 km)
Ceiling: indefinite ceiling with vertical visibility of 0 feet AGL
Clouds: obscured sky
Weather: FG  (fog)

METAR text: LFRL 230200Z AUTO 05005KT 0200 0150 R23/M0200D R05/0250N FG VV/// 08/07 Q1029
Conditions at: LFRL (LANVEOC/POULMIC(, FR) observed 0200 UTC 23 March 2019
Temperature: 8.0°C (46°F)
Dewpoint: 7.0°C (45°F) [RH = 93%]
Pressure (altimeter): 30.38 inches Hg (1029.0 mb)
Winds: from the NE (50 degrees) at 6 MPH (5 knots; 2.6 m/s)
Visibility: 0.12 miles (0.19 km)
Ceiling: indefinite ceiling with vertical visibility of 0 feet AGL
Clouds: obscured sky
Weather: FG  (fog)

METAR text: LFRL 230130Z AUTO 04005KT 1600 1100 R23/1800D R05/1200D BR BKN002 08/07 Q1029
Conditions at: LFRL (LANVEOC/POULMIC(, FR) observed 0130 UTC 23 March 2019
Temperature: 8.0°C (46°F)
Dewpoint: 7.0°C (45°F) [RH = 93%]
Pressure (altimeter): 30.38 inches Hg (1029.0 mb)
Winds: from the NE (40 degrees) at 6 MPH (5 knots; 2.6 m/s)
Visibility: 0.99 miles (1.59 km)
Ceiling: 200 feet AGL
Clouds: broken clouds at 200 feet AGL
Weather: BR  (mist)

METAR text: LFRL 230100Z AUTO 04005KT 2800 BR NSC 08/07 Q1029
Conditions at: LFRL (LANVEOC/POULMIC(, FR) observed 0100 UTC 23 March 2019
Temperature: 8.0°C (46°F)
Dewpoint: 7.0°C (45°F) [RH = 93%]
Pressure (altimeter): 30.38 inches Hg (1029.0 mb)
Winds: from the NE (40 degrees) at 6 MPH (5 knots; 2.6 m/s)
Visibility: 1.74 miles (2.80 km)
Ceiling: at least 12,000 feet AGL
Clouds: sky clear below 12,000 feet AGL
Weather: BR  (mist)

METAR text: LFRL 230030Z AUTO 05005KT 2900 0900 R23/P2000 R05/1200U BCFG NSC 08/07 Q1029
Conditions at: LFRL (LANVEOC/POULMIC(, FR) observed 0030 UTC 23 March 2019
Temperature: 8.0°C (46°F)
Dewpoint: 7.0°C (45°F) [RH = 93%]
Pressure (altimeter): 30.38 inches Hg (1029.0 mb)
Winds: from the NE (50 degrees) at 6 MPH (5 knots; 2.6 m/s)
Visibility: 1.80 miles (2.90 km)
Ceiling: at least 12,000 feet AGL
Clouds: sky clear below 12,000 feet AGL
Weather: BCFG  (patches of fog)

METAR text: LFRL 230000Z AUTO 03004KT 2300 BR NSC 07/07 Q1029
Conditions at: LFRL (LANVEOC/POULMIC(, FR) observed 0000 UTC 23 March 2019
Temperature: 7.0°C (45°F)
Dewpoint: 7.0°C (45°F) [RH = 100%]
Pressure (altimeter): 30.38 inches Hg (1029.0 mb)
Winds: from the NNE (30 degrees) at 5 MPH (4 knots; 2.1 m/s)
Visibility: 1.43 miles (2.30 km)
Ceiling: at least 12,000 feet AGL
Clouds: sky clear below 12,000 feet AGL
Weather: BR  (mist)

METAR text: LFRL 222330Z AUTO 04004KT 2800 BR NSC 07/07 Q1029
Conditions at: LFRL (LANVEOC/POULMIC(, FR) observed 2330 UTC 22 March 2019
Temperature: 7.0°C (45°F)
Dewpoint: 7.0°C (45°F) [RH = 100%]
Pressure (altimeter): 30.38 inches Hg (1029.0 mb)
Winds: from the NE (40 degrees) at 5 MPH (4 knots; 2.1 m/s)
Visibility: 1.74 miles (2.80 km)
Ceiling: at least 12,000 feet AGL
Clouds: sky clear below 12,000 feet AGL
Weather: BR  (mist)

METAR text: LFRL 222300Z AUTO 03004KT 3100 BR NSC 07/06 Q1029
Conditions at: LFRL (LANVEOC/POULMIC(, FR) observed 2300 UTC 22 March 2019
Temperature: 7.0°C (45°F)
Dewpoint: 6.0°C (43°F) [RH = 93%]
Pressure (altimeter): 30.38 inches Hg (1029.0 mb)
Winds: from the NNE (30 degrees) at 5 MPH (4 knots; 2.1 m/s)
Visibility: 1.93 miles (3.11 km)
Ceiling: at least 12,000 feet AGL
Clouds: sky clear below 12,000 feet AGL
Weather: BR  (mist)

METAR text: LFRL 222230Z AUTO 02004KT 3300 BR NSC 08/06 Q1029
Conditions at: LFRL (LANVEOC/POULMIC(, FR) observed 2230 UTC 22 March 2019
Temperature: 8.0°C (46°F)
Dewpoint: 6.0°C (43°F) [RH = 87%]
Pressure (altimeter): 30.38 inches Hg (1029.0 mb)
Winds: from the NNE (20 degrees) at 5 MPH (4 knots; 2.1 m/s)
Visibility: 2.05 miles (3.30 km)
Ceiling: at least 12,000 feet AGL
Clouds: sky clear below 12,000 feet AGL
Weather: BR  (mist)

METAR text: LFRL 222200Z AUTO 03005KT 4100 BR BKN005 08/08 Q1029
Conditions at: LFRL (LANVEOC/POULMIC(, FR) observed 2200 UTC 22 March 2019
Temperature: 8.0°C (46°F)
Dewpoint: 8.0°C (46°F) [RH = 100%]
Pressure (altimeter): 30.38 inches Hg (1029.0 mb)
Winds: from the NNE (30 degrees) at 6 MPH (5 knots; 2.6 m/s)
Visibility: 2.55 miles (4.10 km)
Ceiling: 500 feet AGL
Clouds: broken clouds at 500 feet AGL
Weather: BR  (mist)

METAR text: LFRL 222130Z AUTO 02005KT 4900 BR OVC006 09/08 Q1029
Conditions at: LFRL (LANVEOC/POULMIC(, FR) observed 2130 UTC 22 March 2019
Temperature: 9.0°C (48°F)
Dewpoint: 8.0°C (46°F) [RH = 93%]
Pressure (altimeter): 30.38 inches Hg (1029.0 mb)
Winds: from the NNE (20 degrees) at 6 MPH (5 knots; 2.6 m/s)
Visibility: 3 miles ( 5 km)
Ceiling: 600 feet AGL
Clouds: overcast cloud deck at 600 feet AGL
Weather: BR  (mist)

METAR text: LFRL 222100Z AUTO 02003KT 350V060 4400 BR OVC006 08/07 Q1029
Conditions at: LFRL (LANVEOC/POULMIC(, FR) observed 2100 UTC 22 March 2019
Temperature: 8.0°C (46°F)
Dewpoint: 7.0°C (45°F) [RH = 93%]
Pressure (altimeter): 30.38 inches Hg (1029.0 mb)
Winds: from the NNE (20 degrees) at 3 MPH (3 knots; 1.5 m/s)
Visibility: 2.73 miles (4.39 km)
Ceiling: 600 feet AGL
Clouds: overcast cloud deck at 600 feet AGL
Weather: BR  (mist)

METAR text: LFRL 222030Z AUTO 01004KT 4800 BR OVC006 09/08 Q1029 NOSIG
Conditions at: LFRL (LANVEOC/POULMIC(, FR) observed 2030 UTC 22 March 2019
Temperature: 9.0°C (48°F)
Dewpoint: 8.0°C (46°F) [RH = 93%]
Pressure (altimeter): 30.38 inches Hg (1029.0 mb)
Winds: from the N (10 degrees) at 5 MPH (4 knots; 2.1 m/s)
Visibility: 2.98 miles (4.80 km)
Ceiling: 600 feet AGL
Clouds: overcast cloud deck at 600 feet AGL
Weather: BR  (mist)

METAR text: LFRL 222000Z AUTO 36006KT 340V060 4900 BR SCT007 SCT011 09/08 Q1029 TEMPO BKN005
Conditions at: LFRL (LANVEOC/POULMIC(, FR) observed 2000 UTC 22 March 2019
Temperature: 9.0°C (48°F)
Dewpoint: 8.0°C (46°F) [RH = 93%]
Pressure (altimeter): 30.38 inches Hg (1029.0 mb)
Winds: from the N (360 degrees) at 7 MPH (6 knots; 3.1 m/s)
Visibility: 3 miles ( 5 km)
Ceiling: at least 12,000 feet AGL
Clouds: scattered clouds at 700 feet AGL
scattered clouds at 1100 feet AGL
Weather: BR  (mist)

METAR text: LFRL 221930Z AUTO 35005KT 340V070 5000 BR SCT008 SCT013 09/08 Q1029 TEMPO BKN005
Conditions at: LFRL (LANVEOC/POULMIC(, FR) observed 1930 UTC 22 March 2019
Temperature: 9.0°C (48°F)
Dewpoint: 8.0°C (46°F) [RH = 93%]
Pressure (altimeter): 30.38 inches Hg (1029.0 mb)
Winds: from the N (350 degrees) at 6 MPH (5 knots; 2.6 m/s)
Visibility: 3 miles ( 5 km)
Ceiling: at least 12,000 feet AGL
Clouds: scattered clouds at 800 feet AGL
scattered clouds at 1300 feet AGL
Weather: BR  (mist)

METAR text: LFRL 221900Z AUTO 33006KT 5000 BR BKN009 OVC015 10/09 Q1028 BECMG FEW025
Conditions at: LFRL (LANVEOC/POULMIC(, FR) observed 1900 UTC 22 March 2019
Temperature: 10.0°C (50°F)
Dewpoint: 9.0°C (48°F) [RH = 93%]
Pressure (altimeter): 30.35 inches Hg (1028.0 mb)
Winds: from the NNW (330 degrees) at 7 MPH (6 knots; 3.1 m/s)
Visibility: 3 miles ( 5 km)
Ceiling: 900 feet AGL
Clouds: broken clouds at 900 feet AGL
overcast cloud deck at 1500 feet AGL
Weather: BR  (mist)

METAR text: LFRL 221830Z AUTO 30007KT 4300 BR FEW010 10/08 Q1028 BECMG 9999 NSW
Conditions at: LFRL (LANVEOC/POULMIC(, FR) observed 1830 UTC 22 March 2019
Temperature: 10.0°C (50°F)
Dewpoint: 8.0°C (46°F) [RH = 87%]
Pressure (altimeter): 30.35 inches Hg (1028.0 mb)
Winds: from the WNW (300 degrees) at 8 MPH (7 knots; 3.6 m/s)
Visibility: 2.67 miles (4.30 km)
Ceiling: at least 12,000 feet AGL
Clouds: few clouds at 1000 feet AGL
Weather: BR  (mist)

METAR text: LFRL 221800Z AUTO 28007KT 5000 BR NSC 11/09 Q1028 NOSIG
Conditions at: LFRL (LANVEOC/POULMIC(, FR) observed 1800 UTC 22 March 2019
Temperature: 11.0°C (52°F)
Dewpoint: 9.0°C (48°F) [RH = 87%]
Pressure (altimeter): 30.35 inches Hg (1028.0 mb)
Winds: from the W (280 degrees) at 8 MPH (7 knots; 3.6 m/s)
Visibility: 3 miles ( 5 km)
Ceiling: at least 12,000 feet AGL
Clouds: sky clear below 12,000 feet AGL
Weather: BR  (mist)

METAR text: LFRL 221730Z AUTO 28008KT 9000 NSC 12/09 Q1028 NOSIG
Conditions at: LFRL (LANVEOC/POULMIC(, FR) observed 1730 UTC 22 March 2019
Temperature: 12.0°C (54°F)
Dewpoint: 9.0°C (48°F) [RH = 82%]
Pressure (altimeter): 30.35 inches Hg (1028.0 mb)
Winds: from the W (280 degrees) at 9 MPH (8 knots; 4.1 m/s)
Visibility: 6 miles ( 9 km)
Ceiling: at least 12,000 feet AGL
Clouds: sky clear below 12,000 feet AGL
Weather: no significant weather observed at this time

METAR text: LFRL 221700Z AUTO 28005KT CAVOK 14/08 Q1028 NOSIG
Conditions at: LFRL (LANVEOC/POULMIC(, FR) observed 1700 UTC 22 March 2019
Temperature: 14.0°C (57°F)
Dewpoint: 8.0°C (46°F) [RH = 67%]
Pressure (altimeter): 30.35 inches Hg (1028.0 mb)
Winds: from the W (280 degrees) at 6 MPH (5 knots; 2.6 m/s)
Visibility: 6 or more miles (10+ km)
Ceiling: ceiling and visibility are OK
Clouds: unknown
Weather: no significant weather observed at this time

METAR text: LFRL 221630Z AUTO 29004KT CAVOK 14/08 Q1027 NOSIG
Conditions at: LFRL (LANVEOC/POULMIC(, FR) observed 1630 UTC 22 March 2019
Temperature: 14.0°C (57°F)
Dewpoint: 8.0°C (46°F) [RH = 67%]
Pressure (altimeter): 30.32 inches Hg (1027.0 mb)
Winds: from the WNW (290 degrees) at 5 MPH (4 knots; 2.1 m/s)
Visibility: 6 or more miles (10+ km)
Ceiling: ceiling and visibility are OK
Clouds: unknown
Weather: no significant weather observed at this time

METAR text: LFRL 221600Z AUTO 29009KT 9999 3100 NSC 14/09 Q1028 NOSIG
Conditions at: LFRL (LANVEOC/POULMIC(, FR) observed 1600 UTC 22 March 2019
Temperature: 14.0°C (57°F)
Dewpoint: 9.0°C (48°F) [RH = 72%]
Pressure (altimeter): 30.35 inches Hg (1028.0 mb)
Winds: from the WNW (290 degrees) at 10 MPH (9 knots; 4.6 m/s)
Visibility: 6 or more miles (10+ km)
Ceiling: at least 12,000 feet AGL
Clouds: sky clear below 12,000 feet AGL
Weather: no significant weather observed at this time

METAR text: LFRL 221530Z AUTO 30009KT 9999 3300 NSC 15/09 Q1028 NOSIG
Conditions at: LFRL (LANVEOC/POULMIC(, FR) observed 1530 UTC 22 March 2019
Temperature: 15.0°C (59°F)
Dewpoint: 9.0°C (48°F) [RH = 67%]
Pressure (altimeter): 30.35 inches Hg (1028.0 mb)
Winds: from the WNW (300 degrees) at 10 MPH (9 knots; 4.6 m/s)
Visibility: 6 or more miles (10+ km)
Ceiling: at least 12,000 feet AGL
Clouds: sky clear below 12,000 feet AGL
Weather: no significant weather observed at this time

METAR text: LFRL 221500Z AUTO 30009KT 9000 NSC 14/09 Q1028 NOSIG
Conditions at: LFRL (LANVEOC/POULMIC(, FR) observed 1500 UTC 22 March 2019
Temperature: 14.0°C (57°F)
Dewpoint: 9.0°C (48°F) [RH = 72%]
Pressure (altimeter): 30.35 inches Hg (1028.0 mb)
Winds: from the WNW (300 degrees) at 10 MPH (9 knots; 4.6 m/s)
Visibility: 6 miles ( 9 km)
Ceiling: at least 12,000 feet AGL
Clouds: sky clear below 12,000 feet AGL
Weather: no significant weather observed at this time

METAR text: LFRL 221430Z AUTO 30008KT 9000 2500 FEW029 15/09 Q1028 NOSIG
Conditions at: LFRL (LANVEOC/POULMIC(, FR) observed 1430 UTC 22 March 2019
Temperature: 15.0°C (59°F)
Dewpoint: 9.0°C (48°F) [RH = 67%]
Pressure (altimeter): 30.35 inches Hg (1028.0 mb)
Winds: from the WNW (300 degrees) at 9 MPH (8 knots; 4.1 m/s)
Visibility: 6 miles ( 9 km)
Ceiling: at least 12,000 feet AGL
Clouds: few clouds at 2900 feet AGL
Weather: no significant weather observed at this time

METAR text: LFRL 221400Z AUTO 30008KT 9999 SCT027 BKN033 15/09 Q1028 NOSIG
Conditions at: LFRL (LANVEOC/POULMIC(, FR) observed 1400 UTC 22 March 2019
Temperature: 15.0°C (59°F)
Dewpoint: 9.0°C (48°F) [RH = 67%]
Pressure (altimeter): 30.35 inches Hg (1028.0 mb)
Winds: from the WNW (300 degrees) at 9 MPH (8 knots; 4.1 m/s)
Visibility: 6 or more miles (10+ km)
Ceiling: 3300 feet AGL
Clouds: scattered clouds at 2700 feet AGL
broken clouds at 3300 feet AGL
Weather: no significant weather observed at this time

METAR text: LFRL 221330Z AUTO 31008KT 9999 FEW025 13/09 Q1028 NOSIG
Conditions at: LFRL (LANVEOC/POULMIC(, FR) observed 1330 UTC 22 March 2019
Temperature: 13.0°C (55°F)
Dewpoint: 9.0°C (48°F) [RH = 77%]
Pressure (altimeter): 30.35 inches Hg (1028.0 mb)
Winds: from the NW (310 degrees) at 9 MPH (8 knots; 4.1 m/s)
Visibility: 6 or more miles (10+ km)
Ceiling: at least 12,000 feet AGL
Clouds: few clouds at 2500 feet AGL
Weather: no significant weather observed at this time

METAR text: LFRL 221300Z AUTO 32006KT 270V360 9999 SCT030 15/09 Q1028 NOSIG
Conditions at: LFRL (LANVEOC/POULMIC(, FR) observed 1300 UTC 22 March 2019
Temperature: 15.0°C (59°F)
Dewpoint: 9.0°C (48°F) [RH = 67%]
Pressure (altimeter): 30.35 inches Hg (1028.0 mb)
Winds: from the NW (320 degrees) at 7 MPH (6 knots; 3.1 m/s)
Visibility: 6 or more miles (10+ km)
Ceiling: at least 12,000 feet AGL
Clouds: scattered clouds at 3000 feet AGL
Weather: no significant weather observed at this time

METAR text: LFRL 221230Z AUTO VRB04KT 9999 FEW031 16/07 Q1028 NOSIG
Conditions at: LFRL (LANVEOC/POULMIC(, FR) observed 1230 UTC 22 March 2019
Temperature: 16.0°C (61°F)
Dewpoint: 7.0°C (45°F) [RH = 55%]
Pressure (altimeter): 30.35 inches Hg (1028.0 mb)
Winds: variable direction winds at 5 MPH (4 knots; 2.1 m/s)
Visibility: 6 or more miles (10+ km)
Ceiling: at least 12,000 feet AGL
Clouds: few clouds at 3100 feet AGL
Weather: no significant weather observed at this time

METAR text: LFRL 221200Z AUTO 21004KT 160V260 CAVOK 16/09 Q1028 NOSIG
Conditions at: LFRL (LANVEOC/POULMIC(, FR) observed 1200 UTC 22 March 2019
Temperature: 16.0°C (61°F)
Dewpoint: 9.0°C (48°F) [RH = 63%]
Pressure (altimeter): 30.35 inches Hg (1028.0 mb)
Winds: from the SSW (210 degrees) at 5 MPH (4 knots; 2.1 m/s)
Visibility: 6 or more miles (10+ km)
Ceiling: ceiling and visibility are OK
Clouds: unknown
Weather: no significant weather observed at this time

METAR text: LFRL 221130Z AUTO 18004KT 140V270 CAVOK 15/08 Q1029 NOSIG
Conditions at: LFRL (LANVEOC/POULMIC(, FR) observed 1130 UTC 22 March 2019
Temperature: 15.0°C (59°F)
Dewpoint: 8.0°C (46°F) [RH = 63%]
Pressure (altimeter): 30.38 inches Hg (1029.0 mb)
Winds: from the S (180 degrees) at 5 MPH (4 knots; 2.1 m/s)
Visibility: 6 or more miles (10+ km)
Ceiling: ceiling and visibility are OK
Clouds: unknown
Weather: no significant weather observed at this time

METAR text: LFRL 221100Z AUTO 19003KT 140V230 9999 FEW021 15/09 Q1029 NOSIG
Conditions at: LFRL (LANVEOC/POULMIC(, FR) observed 1100 UTC 22 March 2019
Temperature: 15.0°C (59°F)
Dewpoint: 9.0°C (48°F) [RH = 67%]
Pressure (altimeter): 30.38 inches Hg (1029.0 mb)
Winds: from the S (190 degrees) at 3 MPH (3 knots; 1.5 m/s)
Visibility: 6 or more miles (10+ km)
Ceiling: at least 12,000 feet AGL
Clouds: few clouds at 2100 feet AGL
Weather: no significant weather observed at this time

METAR text: LFRL 221030Z AUTO VRB02KT CAVOK 15/09 Q1029 NOSIG
Conditions at: LFRL (LANVEOC/POULMIC(, FR) observed 1030 UTC 22 March 2019
Temperature: 15.0°C (59°F)
Dewpoint: 9.0°C (48°F) [RH = 67%]
Pressure (altimeter): 30.38 inches Hg (1029.0 mb)
Winds: variable direction winds at 2 MPH (2 knots; 1.0 m/s)
Visibility: 6 or more miles (10+ km)
Ceiling: ceiling and visibility are OK
Clouds: unknown
Weather: no significant weather observed at this time